Time;durP1;ratioP1;P1;durP2;ratioP2;P2;SDS_P1;SDS_P2;PMS_P1;PMS_P2;Temp;Humidity;BMP_temperature;BMP_pressure;BME280_temperature;BME280_humidity;BME280_pressure;Samples;Min_cycle;Max_cycle;Signal;HPM_P1;HPM_P2
2023/05/22 00:01:43;;;;;;;4.05;2.47;;;17.90;56.40;;;;;;5114709;28;20205;-71
2023/05/22 00:04:12;;;;;;;4.97;2.40;;;17.90;56.40;;;;;;5114841;28;20308;-71
2023/05/22 00:06:43;;;;;;;3.50;2.35;;;17.90;56.40;;;;;;5114817;28;20186;-71
2023/05/22 00:09:10;;;;;;;4.07;2.55;;;17.90;56.40;;;;;;5114704;28;20225;-71
2023/05/22 00:11:38;;;;;;;3.28;2.60;;;17.90;56.40;;;;;;5114728;28;20228;-70
2023/05/22 00:14:05;;;;;;;4.53;2.53;;;17.90;56.40;;;;;;5114614;28;20213;-71
2023/05/22 00:16:32;;;;;;;3.78;2.30;;;17.90;56.40;;;;;;5114562;28;20644;-71
2023/05/22 00:18:59;;;;;;;4.40;2.50;;;17.90;56.40;;;;;;5114613;28;20217;-70
2023/05/22 00:21:28;;;;;;;4.07;2.60;;;17.90;56.40;;;;;;5114420;28;20194;-70
2023/05/22 00:23:55;;;;;;;4.38;2.85;;;17.90;56.50;;;;;;5114598;28;20296;-71
2023/05/22 00:26:22;;;;;;;3.65;2.45;;;17.90;56.40;;;;;;5114049;28;20605;-71
2023/05/22 00:28:49;;;;;;;2.85;2.28;;;17.90;56.40;;;;;;5095834;28;20241;-70
2023/05/22 00:31:16;;;;;;;3.13;2.63;;;17.90;56.40;;;;;;5114442;28;20670;-71
2023/05/22 00:33:44;;;;;;;3.90;2.58;;;17.90;56.40;;;;;;5114074;28;20691;-71
2023/05/22 00:36:11;;;;;;;3.83;2.40;;;17.90;56.40;;;;;;5114461;28;20280;-70
2023/05/22 00:38:40;;;;;;;3.30;2.45;;;17.90;56.50;;;;;;5114211;28;20316;-70
2023/05/22 00:41:07;;;;;;;7.28;2.83;;;17.90;56.40;;;;;;5114088;28;20182;-70
2023/05/22 00:43:34;;;;;;;3.55;2.30;;;17.90;56.50;;;;;;5114125;28;20217;-70
2023/05/22 00:46:02;;;;;;;5.25;2.47;;;17.90;57.10;;;;;;5113013;28;20193;-70
2023/05/22 00:48:28;;;;;;;2.97;2.63;;;17.90;56.40;;;;;;5113954;28;20300;-70
2023/05/22 00:50:57;;;;;;;3.25;2.47;;;17.90;56.40;;;;;;5092154;28;20226;-70
2023/05/22 00:53:26;;;;;;;3.38;2.53;;;17.90;56.50;;;;;;5093177;28;20220;-71
2023/05/22 00:55:56;;;;;;;2.97;2.40;;;17.90;56.50;;;;;;5093237;28;20273;-70
2023/05/22 00:58:26;;;;;;;3.72;2.45;;;17.90;56.40;;;;;;5093608;28;20304;-73
2023/05/22 01:00:54;;;;;;;3.22;2.72;;;17.90;56.50;;;;;;5092075;28;20190;-72
2023/05/22 01:03:24;;;;;;;3.58;2.58;;;17.90;56.50;;;;;;5093448;28;20587;-73
2023/05/22 01:05:52;;;;;;;3.70;2.42;;;17.90;56.50;;;;;;5092059;28;20604;-72
2023/05/22 01:08:20;;;;;;;3.03;2.58;;;17.90;56.40;;;;;;5093233;28;20216;-73
2023/05/22 01:10:52;;;;;;;2.60;2.33;;;17.90;56.40;;;;;;5071122;28;20357;-70
2023/05/22 01:13:29;;;;;;;3.30;2.55;;;17.90;56.50;;;;;;5081661;28;20223;-72
2023/05/22 01:16:06;;;;;;;3.08;2.70;;;17.90;56.50;;;;;;5093007;28;20186;-72
2023/05/22 01:18:41;;;;;;;2.95;2.60;;;17.90;56.50;;;;;;5093137;28;20571;-72
2023/05/22 01:21:13;;;;;;;2.83;2.40;;;17.90;56.50;;;;;;5093079;28;20186;-71
2023/05/22 01:24:26;;;;;;;3.38;2.78;;;17.90;56.50;;;;;;5092673;28;20723;-74
2023/05/22 01:27:33;;;;;;;4.65;2.70;;;17.90;56.50;;;;;;5092860;28;20201;-71
2023/05/22 01:30:17;;;;;;;3.75;2.35;;;17.90;56.50;;;;;;5092747;28;20220;-73
2023/05/22 01:32:47;;;;;;;2.67;2.40;;;17.80;56.40;;;;;;5092785;28;20224;-71
2023/05/22 01:35:18;;;;;;;3.22;2.67;;;17.90;56.50;;;;;;5092801;28;20182;-71
2023/05/22 01:37:46;;;;;;;3.30;2.75;;;17.90;56.50;;;;;;5093002;28;20563;-71
2023/05/22 01:40:14;;;;;;;3.38;2.60;;;17.90;56.50;;;;;;5092283;28;20644;-72
2023/05/22 01:42:41;;;;;;;5.00;2.50;;;17.90;56.50;;;;;;5092697;28;20304;-71
2023/05/22 01:45:11;;;;;;;3.72;2.47;;;17.90;56.50;;;;;;5092560;28;20186;-72
2023/05/22 01:47:38;;;;;;;5.63;2.78;;;17.90;56.50;;;;;;5092847;28;20249;-71
2023/05/22 01:50:08;;;;;;;3.00;2.70;;;17.90;56.50;;;;;;5090785;28;20233;-71
2023/05/22 01:52:54;;;;;;;3.58;2.65;;;17.90;56.50;;;;;;5092463;28;20305;-72
2023/05/22 01:55:26;;;;;;;3.78;2.67;;;17.90;56.50;;;;;;5092488;28;20217;-72
2023/05/22 01:57:58;;;;;;;3.72;2.55;;;17.90;56.50;;;;;;5092277;28;20343;-72
2023/05/22 02:00:27;;;;;;;4.20;2.38;;;17.90;56.50;;;;;;5092268;28;20231;-71
2023/05/22 02:02:58;;;;;;;5.45;3.03;;;17.90;56.50;;;;;;5092480;28;20252;-71
2023/05/22 02:05:29;;;;;;;3.30;2.70;;;17.90;56.60;;;;;;5092368;28;20273;-71
2023/05/22 02:08:00;;;;;;;4.30;2.50;;;17.90;56.50;;;;;;5092429;28;20297;-72
2023/05/22 02:10:29;;;;;;;4.60;2.60;;;17.90;56.50;;;;;;5091910;28;20687;-71
2023/05/22 02:12:56;;;;;;;4.10;2.47;;;17.90;56.50;;;;;;5092307;28;20220;-71
2023/05/22 02:15:23;;;;;;;2.60;2.40;;;17.90;56.50;;;;;;5091832;28;20186;-72
2023/05/22 02:17:51;;;;;;;3.25;2.60;;;17.90;56.50;;;;;;5092318;28;20218;-72
2023/05/22 02:20:19;;;;;;;3.28;2.42;;;17.90;56.50;;;;;;5092439;28;20186;-73
2023/05/22 02:22:48;;;;;;;3.63;2.65;;;17.90;56.60;;;;;;5092368;28;20309;-71
2023/05/22 02:25:16;;;;;;;3.35;2.60;;;17.90;56.50;;;;;;5092303;28;20214;-71
2023/05/22 02:27:44;;;;;;;4.28;2.47;;;17.90;56.50;;;;;;5092182;28;20214;-71
2023/05/22 02:30:12;;;;;;;4.50;2.70;;;17.80;56.50;;;;;;5091739;28;20260;-71
2023/05/22 02:32:39;;;;;;;3.85;2.65;;;17.80;56.40;;;;;;5092169;28;20210;-70
2023/05/22 02:35:07;;;;;;;3.80;2.72;;;17.90;56.50;;;;;;5091930;28;20723;-70
2023/05/22 02:37:34;;;;;;;4.32;2.80;;;17.90;56.50;;;;;;5092143;28;20216;-72
2023/05/22 02:40:04;;;;;;;4.68;2.83;;;17.80;56.40;;;;;;5091707;28;20196;-71
2023/05/22 02:42:31;;;;;;;2.45;2.25;;;17.80;56.40;;;;;;5091772;28;20703;-71
2023/05/22 02:44:59;;;;;;;2.83;2.58;;;17.80;56.40;;;;;;5091687;28;20182;-71
2023/05/22 02:47:26;;;;;;;4.78;2.70;;;17.80;56.50;;;;;;5091689;28;20563;-71
2023/05/22 02:49:53;;;;;;;4.43;2.70;;;17.80;56.40;;;;;;5099363;28;20232;-71
2023/05/22 02:52:21;;;;;;;3.15;2.42;;;17.80;56.40;;;;;;5112332;28;20200;-71
2023/05/22 02:54:48;;;;;;;3.10;2.38;;;17.80;56.40;;;;;;5112465;28;20219;-71
2023/05/22 02:57:17;;;;;;;2.85;2.53;;;17.80;56.50;;;;;;5112420;28;20272;-71
2023/05/22 02:59:44;;;;;;;4.68;2.60;;;17.80;56.40;;;;;;5112314;28;20185;-71
2023/05/22 03:02:12;;;;;;;4.43;2.78;;;17.80;56.50;;;;;;5111877;28;20193;-71
2023/05/22 03:04:39;;;;;;;6.70;2.90;;;17.80;56.50;;;;;;5112291;28;20225;-70
2023/05/22 03:07:06;;;;;;;4.28;2.70;;;17.80;56.50;;;;;;5112188;28;20190;-71
2023/05/22 03:09:34;;;;;;;3.97;2.70;;;17.80;56.50;;;;;;5114334;28;20224;-71
2023/05/22 03:12:01;;;;;;;5.28;2.65;;;17.80;56.40;;;;;;5115897;28;20393;-71
2023/05/22 03:14:30;;;;;;;4.05;2.60;;;17.80;56.50;;;;;;5115610;28;20300;-72
2023/05/22 03:16:57;;;;;;;3.50;2.72;;;17.80;56.50;;;;;;5115803;28;20186;-71
2023/05/22 03:19:25;;;;;;;4.05;2.65;;;17.80;56.50;;;;;;5115554;28;20239;-70
2023/05/22 03:21:52;;;;;;;5.78;3.10;;;17.80;56.50;;;;;;5115625;28;20185;-72
2023/05/22 03:24:19;;;;;;;5.00;3.00;;;17.80;56.50;;;;;;5115796;28;20213;-72
2023/05/22 03:26:46;;;;;;;5.32;3.05;;;17.80;56.50;;;;;;5115512;28;20189;-70
2023/05/22 03:29:13;;;;;;;3.72;2.60;;;17.80;56.50;;;;;;5115586;28;20296;-70
2023/05/22 03:31:42;;;;;;;5.22;2.90;;;17.80;56.60;;;;;;5115147;28;20185;-72
2023/05/22 03:34:09;;;;;;;4.55;2.88;;;17.80;56.50;;;;;;5115533;28;20304;-71
2023/05/22 03:36:36;;;;;;;6.88;3.20;;;17.80;56.50;;;;;;5115384;28;20280;-71
2023/05/22 03:39:05;;;;;;;5.63;3.28;;;17.80;56.60;;;;;;5115256;28;20213;-72
2023/05/22 03:41:32;;;;;;;4.30;2.90;;;17.80;56.50;;;;;;5115284;28;20197;-71
2023/05/22 03:43:59;;;;;;;4.43;2.90;;;17.80;56.50;;;;;;5097234;28;20209;-71
2023/05/22 03:46:26;;;;;;;4.90;2.78;;;17.80;57.20;;;;;;5115212;28;20563;-71
2023/05/22 03:48:55;;;;;;;3.83;2.72;;;17.70;56.50;;;;;;5115113;28;20300;-70
2023/05/22 03:51:21;;;;;;;4.10;2.83;;;17.80;56.60;;;;;;5114727;28;20239;-70
2023/05/22 03:53:49;;;;;;;4.32;2.53;;;17.70;56.50;;;;;;5115228;28;20300;-71
2023/05/22 03:56:16;;;;;;;3.38;2.55;;;17.80;56.60;;;;;;5114925;28;20185;-71
2023/05/22 03:58:43;;;;;;;4.97;2.78;;;17.80;56.60;;;;;;5114685;28;20718;-70
2023/05/22 04:01:12;;;;;;;3.75;2.55;;;17.80;56.60;;;;;;5114844;28;20205;-71
2023/05/22 04:03:39;;;;;;;5.05;3.20;;;17.80;56.60;;;;;;5114942;28;20300;-71
2023/05/22 04:06:09;;;;;;;4.65;3.08;;;17.80;56.60;;;;;;5114754;28;20264;-71
2023/05/22 04:08:36;;;;;;;4.70;3.00;;;17.80;56.60;;;;;;5114246;28;20220;-71
2023/05/22 04:11:04;;;;;;;5.65;3.10;;;17.70;56.50;;;;;;5114629;28;20219;-71
2023/05/22 04:13:31;;;;;;;3.92;2.70;;;17.80;56.60;;;;;;5114498;28;20232;-70
2023/05/22 04:16:00;;;;;;;4.95;3.08;;;17.70;56.50;;;;;;5114855;28;20188;-71
2023/05/22 04:18:27;;;;;;;4.53;3.22;;;17.80;56.60;;;;;;5114560;28;20221;-71
2023/05/22 04:20:54;;;;;;;4.97;2.42;;;17.70;56.50;;;;;;5114431;28;20281;-71
2023/05/22 04:23:23;;;;;;;4.60;2.67;;;17.70;56.60;;;;;;5114487;28;20282;-71
2023/05/22 04:25:50;;;;;;;3.50;2.85;;;17.70;56.60;;;;;;5114334;28;20276;-70
2023/05/22 04:28:21;;;;;;;5.80;2.90;;;17.70;56.60;;;;;;5114091;28;20737;-70
2023/05/22 04:30:48;;;;;;;5.13;2.88;;;17.70;56.60;;;;;;5114227;28;20308;-70
2023/05/22 04:33:15;;;;;;;4.47;2.80;;;17.80;56.70;;;;;;5114310;28;20635;-70
2023/05/22 04:35:43;;;;;;;5.40;2.70;;;17.70;56.60;;;;;;5114248;28;20224;-70
2023/05/22 04:38:10;;;;;;;5.85;3.15;;;17.70;56.60;;;;;;5114097;28;20216;-71
2023/05/22 04:40:39;;;;;;;4.90;3.00;;;17.70;56.60;;;;;;5114023;28;20218;-70
2023/05/22 04:43:06;;;;;;;4.80;2.80;;;17.70;56.60;;;;;;5114396;28;20300;-72
2023/05/22 04:45:34;;;;;;;5.28;3.20;;;17.70;56.60;;;;;;5113991;28;20196;-71
2023/05/22 04:48:01;;;;;;;3.15;2.67;;;17.70;56.60;;;;;;5113665;28;20224;-71
2023/05/22 04:50:31;;;;;;;5.10;3.30;;;17.70;56.60;;;;;;5095096;28;20240;-73
2023/05/22 04:52:59;;;;;;;4.75;2.70;;;17.70;56.60;;;;;;5113307;28;20217;-74
2023/05/22 04:55:26;;;;;;;4.70;2.95;;;17.70;56.60;;;;;;5112565;28;20661;-70
2023/05/22 04:57:55;;;;;;;5.30;2.80;;;17.70;56.60;;;;;;5112871;28;20296;-71
2023/05/22 05:00:25;;;;;;;4.13;2.63;;;17.70;56.60;;;;;;5112813;28;20284;-72
2023/05/22 05:02:52;;;;;;;5.35;2.70;;;17.70;56.60;;;;;;5112816;28;20256;-71
2023/05/22 05:05:19;;;;;;;4.50;3.05;;;17.70;56.60;;;;;;5112845;28;20186;-71
2023/05/22 05:07:48;;;;;;;3.80;2.67;;;17.70;56.60;;;;;;5112974;28;20280;-72
2023/05/22 05:10:15;;;;;;;5.47;2.92;;;17.70;56.60;;;;;;5112309;28;20564;-72
2023/05/22 05:12:43;;;;;;;3.90;2.72;;;17.70;56.60;;;;;;5094802;28;20235;-71
2023/05/22 05:15:12;;;;;;;3.80;2.75;;;17.70;56.60;;;;;;5112688;28;20215;-71
2023/05/22 05:17:39;;;;;;;5.47;3.45;;;17.70;56.50;;;;;;5112191;28;20185;-72
2023/05/22 05:20:08;;;;;;;3.40;2.90;;;17.70;56.60;;;;;;5112217;28;20181;-71
2023/05/22 05:22:36;;;;;;;5.40;2.60;;;17.80;56.60;;;;;;5112426;28;20227;-73
2023/05/22 05:25:04;;;;;;;3.53;2.90;;;17.70;56.50;;;;;;5112419;28;20199;-71
2023/05/22 05:27:31;;;;;;;3.15;2.70;;;17.70;56.50;;;;;;5112448;28;20189;-72
2023/05/22 05:29:58;;;;;;;4.53;2.97;;;17.70;56.50;;;;;;5111814;28;20248;-71
2023/05/22 05:32:27;;;;;;;3.38;2.70;;;17.70;56.50;;;;;;5111973;28;20197;-71
2023/05/22 05:34:55;;;;;;;4.43;2.40;;;17.70;56.50;;;;;;5112235;28;20651;-71
2023/05/22 05:37:22;;;;;;;7.25;2.67;;;17.70;56.40;;;;;;5112335;28;20189;-71
2023/05/22 05:39:49;;;;;;;2.97;2.47;;;17.70;56.40;;;;;;5112465;28;20566;-72
2023/05/22 05:42:17;;;;;;;3.78;2.90;;;17.70;56.40;;;;;;5112192;28;20681;-71
2023/05/22 05:44:44;;;;;;;4.00;2.60;;;17.70;57.10;;;;;;5112223;28;20209;-73
2023/05/22 05:47:12;;;;;;;4.90;2.60;;;17.70;56.40;;;;;;5111736;28;20272;-70
2023/05/22 05:49:40;;;;;;;4.43;2.50;;;17.70;56.40;;;;;;5069969;28;1185856;-71
2023/05/22 05:52:07;;;;;;;3.70;2.38;;;17.70;56.30;;;;;;5112624;28;20861;-70
2023/05/22 05:54:34;;;;;;;6.43;2.97;;;17.80;56.40;;;;;;5112665;28;20702;-71
2023/05/22 05:57:01;;;;;;;4.97;2.85;;;17.70;56.20;;;;;;5113208;28;20272;-71
2023/05/22 05:59:30;;;;;;;4.20;2.45;;;17.70;56.20;;;;;;5112346;28;20300;-71
2023/05/22 06:01:57;;;;;;;3.03;2.47;;;17.70;56.20;;;;;;5112749;28;20196;-71
2023/05/22 06:04:26;;;;;;;5.32;2.47;;;17.70;56.20;;;;;;5112791;28;20220;-71
2023/05/22 06:06:55;;;;;;;4.57;2.30;;;17.80;56.20;;;;;;5112731;28;20194;-73
2023/05/22 06:09:22;;;;;;;3.17;2.88;;;17.80;56.20;;;;;;5112460;28;20718;-71
2023/05/22 06:11:49;;;;;;;3.17;2.40;;;17.80;56.20;;;;;;5112576;28;20214;-72
2023/05/22 06:14:16;;;;;;;4.05;2.58;;;17.80;56.20;;;;;;5112600;28;20213;-74
2023/05/22 06:16:44;;;;;;;3.00;2.17;;;17.80;56.10;;;;;;5112414;28;20197;-71
2023/05/22 06:19:11;;;;;;;3.97;2.47;;;17.80;56.10;;;;;;5112670;28;20217;-71
2023/05/22 06:21:38;;;;;;;4.78;2.40;;;17.80;56.10;;;;;;5112569;28;20275;-71
2023/05/22 06:24:08;;;;;;;4.55;2.42;;;17.80;56.10;;;;;;5112317;28;20213;-72
2023/05/22 06:26:35;;;;;;;4.18;2.33;;;17.80;56.10;;;;;;5112540;28;20185;-71
2023/05/22 06:29:02;;;;;;;8.70;2.50;;;17.80;56.70;;;;;;5112110;28;20706;-71
2023/05/22 06:31:29;;;;;;;3.95;2.63;;;17.80;56.00;;;;;;5112443;28;20256;-73
2023/05/22 06:33:56;;;;;;;4.40;2.40;;;17.80;56.00;;;;;;5112485;28;20585;-72
2023/05/22 06:36:23;;;;;;;3.00;2.42;;;17.80;55.90;;;;;;5107928;28;20220;-73
2023/05/22 06:38:50;;;;;;;4.38;2.85;;;17.80;56.00;;;;;;5112198;28;20746;-72
2023/05/22 06:41:19;;;;;;;5.60;2.58;;;17.80;55.90;;;;;;5112365;28;20197;-72
2023/05/22 06:43:47;;;;;;;4.30;2.40;;;17.80;55.90;;;;;;5113291;28;20217;-71
2023/05/22 06:46:13;;;;;;;4.13;2.67;;;17.80;55.90;;;;;;5116301;28;20640;-74
2023/05/22 06:48:40;;;;;;;4.32;2.70;;;17.80;55.90;;;;;;5116284;28;20216;-72
2023/05/22 06:51:10;;;;;;;2.70;2.40;;;17.80;55.90;;;;;;5115776;28;20676;-72
2023/05/22 06:53:37;;;;;;;5.90;3.25;;;17.80;55.90;;;;;;5115828;28;20213;-73
2023/05/22 06:56:04;;;;;;;4.13;2.65;;;17.80;55.90;;;;;;5116222;28;20189;-71
2023/05/22 06:58:33;;;;;;;5.32;2.83;;;17.80;55.90;;;;;;5115621;28;20252;-71
2023/05/22 07:01:00;;;;;;;4.68;2.78;;;17.80;55.90;;;;;;5116094;28;20264;-72
2023/05/22 07:03:27;;;;;;;5.30;2.75;;;17.80;55.90;;;;;;5115608;28;20296;-71
2023/05/22 07:05:56;;;;;;;3.92;2.60;;;17.80;56.10;;;;;;5115884;28;20217;-73
2023/05/22 07:08:23;;;;;;;3.28;2.60;;;17.80;55.80;;;;;;5115546;28;20213;-72
2023/05/22 07:10:50;;;;;;;3.42;2.70;;;17.80;55.80;;;;;;5115731;28;20216;-72
2023/05/22 07:13:17;;;;;;;5.35;3.60;;;17.80;55.80;;;;;;5115868;28;20671;-71
2023/05/22 07:15:47;;;;;;;5.45;2.72;;;17.80;55.80;;;;;;5115699;28;20221;-72
2023/05/22 07:18:14;;;;;;;4.53;2.40;;;17.80;55.80;;;;;;5115413;28;20714;-72
2023/05/22 07:20:41;;;;;;;3.92;2.40;;;17.80;55.80;;;;;;5115725;28;20281;-71
2023/05/22 07:23:08;;;;;;;4.53;2.65;;;17.80;55.70;;;;;;5115517;28;20303;-71
2023/05/22 07:25:35;;;;;;;3.63;2.72;;;17.80;55.70;;;;;;5115516;28;20189;-72
2023/05/22 07:28:07;;;;;;;3.92;2.85;;;17.80;55.70;;;;;;5115392;28;20200;-71
2023/05/22 07:30:35;;;;;;;4.60;2.63;;;17.80;55.70;;;;;;5115413;28;20567;-71
2023/05/22 07:33:05;;;;;;;3.90;2.40;;;17.80;55.70;;;;;;5097084;28;20193;-70
2023/05/22 07:35:32;;;;;;;3.65;2.58;;;17.80;55.70;;;;;;5115391;28;20289;-71
2023/05/22 07:37:59;;;;;;;4.72;2.70;;;17.80;55.70;;;;;;5115170;28;20266;-71
2023/05/22 07:40:26;;;;;;;7.13;2.72;;;17.80;55.60;;;;;;5114729;28;20610;-71
2023/05/22 07:42:53;;;;;;;4.82;3.65;;;17.80;55.70;;;;;;5115174;28;20272;-71
2023/05/22 07:45:20;;;;;;;4.93;2.92;;;17.80;55.60;;;;;;5097111;28;20269;-72
2023/05/22 07:47:47;;;;;;;6.07;3.22;;;17.80;55.70;;;;;;5114828;28;20281;-71
2023/05/22 07:50:16;;;;;;;5.47;3.00;;;17.80;55.60;;;;;;5114552;28;20658;-71
2023/05/22 07:52:43;;;;;;;4.40;3.17;;;17.80;55.60;;;;;;5115011;28;20312;-70
2023/05/22 07:55:10;;;;;;;6.18;3.00;;;17.80;55.60;;;;;;5114881;28;20296;-70
2023/05/22 07:57:38;;;;;;;4.80;3.13;;;17.80;55.60;;;;;;5114870;28;20190;-71
2023/05/22 08:00:12;;;;;;;6.55;2.97;;;17.80;55.60;;;;;;5114959;28;20260;-70
2023/05/22 08:02:39;;;;;;;4.38;2.83;;;17.80;55.60;;;;;;5114883;28;20234;-71
2023/05/22 08:05:07;;;;;;;4.80;2.78;;;17.80;55.60;;;;;;5115074;28;20551;-70
2023/05/22 08:07:36;;;;;;;4.07;2.40;;;17.80;55.60;;;;;;5114732;28;20284;-70
2023/05/22 08:10:06;;;;;;;6.50;2.80;;;17.90;55.60;;;;;;5114877;28;20305;-70
2023/05/22 08:12:33;;;;;;;3.88;3.00;;;17.80;55.60;;;;;;5114576;28;20300;-70
2023/05/22 08:15:01;;;;;;;6.63;2.83;;;17.90;55.60;;;;;;5096241;28;20235;-71
2023/05/22 08:17:28;;;;;;;5.60;3.25;;;17.80;55.60;;;;;;5114635;28;20189;-70
2023/05/22 08:19:55;;;;;;;9.38;3.00;;;17.80;55.60;;;;;;5114263;28;20304;-70
2023/05/22 08:22:22;;;;;;;5.72;3.00;;;17.80;55.60;;;;;;5114533;28;20197;-70
2023/05/22 08:24:51;;;;;;;4.97;2.88;;;17.80;55.50;;;;;;5114600;28;20279;-70
2023/05/22 08:27:18;;;;;;;5.95;3.20;;;17.80;55.50;;;;;;5114220;28;20199;-70
2023/05/22 08:29:45;;;;;;;4.95;3.03;;;17.80;55.50;;;;;;5114162;28;20220;-71
2023/05/22 08:32:12;;;;;;;4.05;3.17;;;17.90;55.60;;;;;;5114098;28;20217;-72
2023/05/22 08:34:39;;;;;;;5.22;3.10;;;17.90;55.60;;;;;;5114372;28;20293;-72
2023/05/22 08:37:08;;;;;;;5.65;3.00;;;17.80;55.50;;;;;;5114186;28;20212;-73
2023/05/22 08:39:35;;;;;;;6.07;3.33;;;17.90;55.60;;;;;;5114172;28;20266;-71
2023/05/22 08:42:05;;;;;;;3.55;2.80;;;17.90;55.60;;;;;;5095758;28;20276;-72
2023/05/22 08:44:32;;;;;;;4.85;2.72;;;17.90;55.60;;;;;;5113719;28;20241;-72
2023/05/22 08:47:03;;;;;;;5.30;3.10;;;17.90;55.50;;;;;;5113987;28;20276;-70
2023/05/22 08:49:30;;;;;;;3.83;2.85;;;17.90;55.60;;;;;;5113543;28;20228;-72
2023/05/22 08:52:07;;;;;;;4.10;2.70;;;17.80;55.40;;;;;;5113669;28;20672;-71
2023/05/22 08:54:38;;;;;;;4.65;3.13;;;17.90;55.50;;;;;;5113753;28;20299;-71
2023/05/22 08:57:07;;;;;;;7.28;3.08;;;17.90;55.50;;;;;;5113886;28;20276;-71
2023/05/22 08:59:36;;;;;;;10.60;4.80;;;17.90;55.50;;;;;;5113313;28;20720;-72
2023/05/22 09:02:05;;;;;;;9.73;4.55;;;17.80;55.50;;;;;;5113756;28;20276;-72
2023/05/22 09:04:32;;;;;;;8.07;4.50;;;17.50;56.00;;;;;;5113497;28;20580;-71
2023/05/22 09:07:04;;;;;;;9.85;4.75;;;17.20;56.30;;;;;;5112515;28;20234;-73
2023/05/22 09:09:32;;;;;;;13.68;4.85;;;17.00;56.80;;;;;;5113666;28;20353;-74
2023/05/22 09:12:00;;;;;;;14.18;5.00;;;16.80;57.30;;;;;;5113418;28;20213;-73
2023/05/22 09:14:30;;;;;;;15.70;5.40;;;16.80;57.90;;;;;;5095084;28;20304;-73
2023/05/22 09:16:57;;;;;;;8.90;5.07;;;16.60;58.10;;;;;;5113341;28;20234;-73
2023/05/22 09:19:24;;;;;;;10.80;5.18;;;16.60;58.20;;;;;;5113114;28;20219;-73
2023/05/22 09:21:51;;;;;;;11.90;4.93;;;16.50;58.20;;;;;;5113008;28;20603;-74
2023/05/22 09:24:18;;;;;;;13.13;5.25;;;16.50;58.70;;;;;;5113018;28;20244;-74
2023/05/22 09:26:47;;;;;;;9.68;5.00;;;16.50;58.70;;;;;;5112928;28;20598;-73
2023/05/22 09:29:14;;;;;;;15.10;5.95;;;16.40;58.80;;;;;;5095008;28;20213;-73
2023/05/22 09:31:43;;;;;;;15.93;5.38;;;16.30;59.60;;;;;;5113151;28;20300;-72
2023/05/22 09:34:12;;;;;;;11.65;5.40;;;16.30;60.50;;;;;;5113208;28;20300;-72
2023/05/22 09:36:40;;;;;;;17.75;6.85;;;16.30;59.50;;;;;;5109218;28;20268;-73
2023/05/22 09:39:08;;;;;;;11.40;5.47;;;16.20;59.60;;;;;;5112937;28;20308;-73
2023/05/22 09:41:37;;;;;;;15.65;5.40;;;16.20;60.30;;;;;;5112677;28;20189;-73
2023/05/22 09:44:13;;;;;;;13.70;5.28;;;16.20;59.90;;;;;;5112936;28;20303;-72
2023/05/22 09:46:44;;;;;;;13.52;5.88;;;16.20;59.90;;;;;;5109038;28;20189;-74
2023/05/22 09:49:11;;;;;;;10.27;4.68;;;16.10;59.90;;;;;;5112631;28;20300;-73
2023/05/22 09:51:40;;;;;;;8.63;4.20;;;16.20;59.50;;;;;;5112410;28;20213;-72
2023/05/22 09:54:10;;;;;;;7.95;4.10;;;16.30;59.50;;;;;;5113121;28;20240;-72
2023/05/22 09:56:40;;;;;;;8.57;3.67;;;16.50;59.30;;;;;;5112821;28;20562;-73
2023/05/22 09:59:09;;;;;;;11.07;4.13;;;16.60;58.90;;;;;;5112711;28;20286;-72
2023/05/22 10:01:38;;;;;;;8.10;3.80;;;16.70;58.70;;;;;;5112818;28;20272;-72
2023/05/22 10:04:12;;;;;;;11.02;4.20;;;16.80;58.50;;;;;;5112515;28;20217;-72
2023/05/22 10:06:40;;;;;;;8.45;3.72;;;16.90;59.00;;;;;;5112507;28;20189;-72
2023/05/22 10:09:14;;;;;;;7.28;3.72;;;17.00;58.10;;;;;;5094255;28;20217;-73
2023/05/22 10:11:42;;;;;;;8.73;4.07;;;17.10;57.90;;;;;;5112262;28;20185;-72
2023/05/22 10:14:10;;;;;;;11.00;4.65;;;17.20;57.90;;;;;;5112524;28;20217;-73
2023/05/22 10:16:37;;;;;;;6.70;3.55;;;17.20;57.80;;;;;;5112661;28;20553;-72
2023/05/22 10:19:07;;;;;;;4.82;3.47;;;17.20;57.90;;;;;;5115790;28;20217;-72
2023/05/22 10:21:36;;;;;;;7.35;4.13;;;17.30;57.80;;;;;;5116850;28;20276;-72
2023/05/22 10:24:05;;;;;;;7.15;3.75;;;17.30;57.70;;;;;;5116808;28;20240;-72
2023/05/22 10:26:33;;;;;;;6.72;3.58;;;17.30;57.50;;;;;;5097524;28;20193;-72
2023/05/22 10:29:07;;;;;;;9.57;3.65;;;17.30;57.40;;;;;;5116279;28;20223;-73
2023/05/22 10:31:41;;;;;;;6.80;3.80;;;17.40;57.50;;;;;;5116593;28;20192;-73
2023/05/22 10:34:16;;;;;;;6.25;3.75;;;17.40;57.40;;;;;;5116357;28;20577;-72
2023/05/22 10:36:54;;;;;;;7.38;3.63;;;17.40;57.30;;;;;;5116295;28;20721;-71
2023/05/22 10:39:37;;;;;;;9.10;3.75;;;17.40;57.20;;;;;;5116488;28;20218;-73
2023/05/22 10:42:04;;;;;;;5.40;3.97;;;17.40;57.20;;;;;;5116198;28;20193;-73
2023/05/22 10:44:33;;;;;;;5.40;3.30;;;17.40;57.20;;;;;;5116307;28;20585;-73
2023/05/22 10:47:09;;;;;;;5.32;3.40;;;17.50;57.20;;;;;;5097960;28;20706;-73
2023/05/22 10:49:37;;;;;;;7.28;3.83;;;17.50;57.20;;;;;;5115650;28;20240;-72
2023/05/22 10:52:05;;;;;;;6.63;3.75;;;17.50;57.80;;;;;;5116310;28;20235;-73
2023/05/22 10:54:43;;;;;;;9.02;3.55;;;17.50;57.20;;;;;;5116397;28;20213;-72
2023/05/22 10:57:13;;;;;;;8.95;3.80;;;17.50;57.10;;;;;;5098370;28;20197;-73
2023/05/22 10:59:40;;;;;;;6.90;3.80;;;17.50;57.10;;;;;;5116018;28;20209;-72
2023/05/22 11:02:19;;;;;;;8.73;3.88;;;17.50;57.00;;;;;;5115994;28;20268;-73
2023/05/22 11:04:49;;;;;;;5.57;3.40;;;17.50;57.00;;;;;;5116053;28;20274;-73
2023/05/22 11:07:16;;;;;;;7.10;3.40;;;17.50;57.00;;;;;;5115972;28;20185;-73
2023/05/22 11:09:46;;;;;;;7.65;3.70;;;17.50;57.00;;;;;;5115542;28;20793;-72
2023/05/22 11:12:24;;;;;;;5.05;3.63;;;17.60;57.00;;;;;;5115417;28;20687;-72
2023/05/22 11:14:52;;;;;;;9.43;3.90;;;17.60;57.00;;;;;;5115743;28;20209;-72
2023/05/22 11:17:24;;;;;;;6.47;3.30;;;17.50;56.90;;;;;;5115352;28;20193;-72
2023/05/22 11:20:04;;;;;;;6.75;3.70;;;17.60;57.50;;;;;;5115808;28;20217;-72
2023/05/22 11:22:34;;;;;;;5.63;3.10;;;17.60;57.00;;;;;;5115662;28;20192;-72
2023/05/22 11:25:04;;;;;;;6.05;3.38;;;17.60;56.90;;;;;;5115681;28;20266;-72
2023/05/22 11:27:32;;;;;;;6.25;3.15;;;17.60;56.90;;;;;;5115525;28;20200;-72
2023/05/22 11:30:00;;;;;;;5.95;3.47;;;17.60;56.90;;;;;;5114588;28;20244;-72
2023/05/22 11:32:28;;;;;;;5.05;3.45;;;17.60;56.90;;;;;;5097198;28;20220;-72
2023/05/22 11:34:57;;;;;;;7.85;3.45;;;17.60;56.90;;;;;;5115579;28;20225;-72
2023/05/22 11:37:26;;;;;;;5.70;3.25;;;17.60;56.80;;;;;;5115297;28;20188;-72
2023/05/22 11:39:56;;;;;;;4.78;3.63;;;17.60;56.80;;;;;;5115463;28;20213;-72
2023/05/22 11:42:24;;;;;;;6.65;3.50;;;17.60;56.80;;;;;;5115394;28;20273;-72
2023/05/22 11:44:51;;;;;;;4.85;3.38;;;17.60;56.70;;;;;;5115082;28;20213;-72
2023/05/22 11:47:18;;;;;;;4.45;3.20;;;17.60;56.70;;;;;;5097177;28;20181;-72
2023/05/22 11:49:45;;;;;;;7.72;3.63;;;17.60;56.70;;;;;;5114652;28;20235;-72
2023/05/22 11:52:12;;;;;;;4.95;3.22;;;17.60;56.70;;;;;;5114847;28;20284;-72
2023/05/22 11:54:41;;;;;;;7.25;3.10;;;17.60;56.70;;;;;;5114834;28;20686;-72
2023/05/22 11:57:08;;;;;;;5.00;3.10;;;17.60;56.70;;;;;;5115072;28;20197;-72
2023/05/22 11:59:36;;;;;;;5.82;3.15;;;17.60;56.70;;;;;;5114927;28;20219;-72
2023/05/22 12:02:03;;;;;;;5.60;3.55;;;17.60;56.70;;;;;;5114858;28;20192;-72
2023/05/22 12:04:30;;;;;;;5.60;3.72;;;17.60;57.30;;;;;;5114913;28;20220;-72
2023/05/22 12:06:57;;;;;;;5.60;3.17;;;17.60;56.70;;;;;;5096770;28;20238;-72
2023/05/22 12:09:25;;;;;;;5.03;3.47;;;17.60;56.70;;;;;;5114774;28;20220;-72
2023/05/22 12:11:55;;;;;;;7.18;3.80;;;17.60;56.70;;;;;;5114793;28;20224;-72
2023/05/22 12:14:26;;;;;;;7.13;3.45;;;17.60;56.70;;;;;;5114568;28;20240;-73
2023/05/22 12:16:53;;;;;;;6.43;3.53;;;17.60;56.70;;;;;;5114319;28;20197;-73
2023/05/22 12:19:21;;;;;;;5.95;4.00;;;17.60;56.60;;;;;;5114483;28;20300;-72
2023/05/22 12:21:50;;;;;;;6.72;3.45;;;17.60;57.30;;;;;;5096509;28;20185;-72
2023/05/22 12:24:22;;;;;;;4.13;3.50;;;17.70;56.70;;;;;;5114441;28;20309;-73
2023/05/22 12:27:02;;;;;;;5.35;3.42;;;17.70;56.70;;;;;;5114471;28;20197;-73
2023/05/22 12:29:29;;;;;;;7.40;3.28;;;17.60;56.50;;;;;;5114288;28;20299;-72
2023/05/22 12:32:01;;;;;;;4.93;3.38;;;17.70;56.70;;;;;;5114092;28;20276;-73
2023/05/22 12:34:33;;;;;;;6.57;3.75;;;17.60;56.50;;;;;;5095873;28;20229;-73
2023/05/22 12:37:01;;;;;;;6.03;3.70;;;17.60;56.50;;;;;;5114202;28;20189;-73
2023/05/22 12:39:28;;;;;;;5.70;3.55;;;17.60;56.50;;;;;;5114171;28;20213;-72
2023/05/22 12:41:57;;;;;;;5.93;3.38;;;17.70;56.60;;;;;;5113026;28;20189;-73
2023/05/22 12:44:26;;;;;;;6.22;3.30;;;17.70;56.50;;;;;;5113735;28;20223;-72
2023/05/22 12:46:53;;;;;;;4.30;3.67;;;17.70;56.50;;;;;;5113993;28;20246;-72
2023/05/22 12:49:20;;;;;;;5.82;3.72;;;17.70;56.50;;;;;;5113566;28;20248;-72
2023/05/22 12:51:47;;;;;;;4.97;3.60;;;17.60;56.40;;;;;;5113742;28;20195;-73
2023/05/22 12:54:14;;;;;;;7.25;3.45;;;17.70;56.50;;;;;;5114055;28;20224;-72